sensor_id;sensor_type;location;lat;lon;timestamp;P1;durP1;ratioP1;P2;durP2;ratioP2
48026;SDS011;50714;49.208;5.364;2022-08-01T00:01:47;1.02;;;1.00;;
48026;SDS011;50714;49.208;5.364;2022-08-01T00:11:48;1.83;;;0.82;;
48026;SDS011;50714;49.208;5.364;2022-08-01T00:21:48;1.00;;;1.00;;
48026;SDS011;50714;49.208;5.364;2022-08-01T00:31:48;0.95;;;0.90;;
48026;SDS011;50714;49.208;5.364;2022-08-01T00:41:49;0.98;;;0.93;;
48026;SDS011;50714;49.208;5.364;2022-08-01T00:51:49;1.15;;;1.05;;
48026;SDS011;50714;49.208;5.364;2022-08-01T01:01:50;0.75;;;0.75;;
48026;SDS011;50714;49.208;5.364;2022-08-01T01:32:17;1.23;;;0.98;;
48026;SDS011;50714;49.208;5.364;2022-08-01T01:42:22;0.80;;;0.80;;
48026;SDS011;50714;49.208;5.364;2022-08-01T01:52:25;2.17;;;1.25;;
48026;SDS011;50714;49.208;5.364;2022-08-01T02:02:27;0.80;;;0.80;;
48026;SDS011;50714;49.208;5.364;2022-08-01T02:12:29;1.58;;;1.10;;
48026;SDS011;50714;49.208;5.364;2022-08-01T02:22:34;1.00;;;0.98;;
48026;SDS011;50714;49.208;5.364;2022-08-01T02:32:47;0.90;;;0.90;;
48026;SDS011;50714;49.208;5.364;2022-08-01T02:42:51;1.48;;;1.00;;
48026;SDS011;50714;49.208;5.364;2022-08-01T02:52:54;1.42;;;0.95;;
48026;SDS011;50714;49.208;5.364;2022-08-01T03:02:56;1.10;;;1.00;;
48026;SDS011;50714;49.208;5.364;2022-08-01T03:12:59;1.13;;;1.02;;
48026;SDS011;50714;49.208;5.364;2022-08-01T03:23:03;1.10;;;1.00;;
48026;SDS011;50714;49.208;5.364;2022-08-01T03:33:06;1.58;;;1.40;;
48026;SDS011;50714;49.208;5.364;2022-08-01T03:43:11;1.40;;;1.08;;
48026;SDS011;50714;49.208;5.364;2022-08-01T03:53:22;1.30;;;1.20;;
48026;SDS011;50714;49.208;5.364;2022-08-01T04:03:24;1.02;;;0.93;;
48026;SDS011;50714;49.208;5.364;2022-08-01T04:13:25;2.25;;;1.02;;
48026;SDS011;50714;49.208;5.364;2022-08-01T04:23:26;1.15;;;1.05;;
48026;SDS011;50714;49.208;5.364;2022-08-01T04:33:31;1.23;;;1.02;;
48026;SDS011;50714;49.208;5.364;2022-08-01T04:43:36;0.93;;;0.93;;
48026;SDS011;50714;49.208;5.364;2022-08-01T04:53:37;1.50;;;1.10;;
48026;SDS011;50714;49.208;5.364;2022-08-01T05:03:38;1.88;;;1.20;;
48026;SDS011;50714;49.208;5.364;2022-08-01T05:13:38;1.15;;;0.93;;
48026;SDS011;50714;49.208;5.364;2022-08-01T05:23:39;1.10;;;1.00;;
48026;SDS011;50714;49.208;5.364;2022-08-01T05:33:39;1.23;;;1.13;;
48026;SDS011;50714;49.208;5.364;2022-08-01T05:43:39;1.15;;;1.05;;
48026;SDS011;50714;49.208;5.364;2022-08-01T05:53:40;1.30;;;1.20;;
48026;SDS011;50714;49.208;5.364;2022-08-01T06:03:40;1.50;;;1.25;;
48026;SDS011;50714;49.208;5.364;2022-08-01T06:13:41;3.20;;;1.42;;
48026;SDS011;50714;49.208;5.364;2022-08-01T06:23:41;1.58;;;1.40;;
48026;SDS011;50714;49.208;5.364;2022-08-01T06:33:42;2.53;;;1.52;;
48026;SDS011;50714;49.208;5.364;2022-08-01T06:43:42;1.63;;;1.13;;
48026;SDS011;50714;49.208;5.364;2022-08-01T06:53:43;1.10;;;0.90;;
48026;SDS011;50714;49.208;5.364;2022-08-01T07:03:43;2.33;;;1.00;;
48026;SDS011;50714;49.208;5.364;2022-08-01T07:13:44;1.13;;;0.80;;
48026;SDS011;50714;49.208;5.364;2022-08-01T07:23:45;0.60;;;0.60;;
48026;SDS011;50714;49.208;5.364;2022-08-01T07:33:46;1.10;;;0.60;;
48026;SDS011;50714;49.208;5.364;2022-08-01T07:43:46;0.47;;;0.47;;
48026;SDS011;50714;49.208;5.364;2022-08-01T07:53:48;0.47;;;0.40;;
48026;SDS011;50714;49.208;5.364;2022-08-01T08:03:49;0.40;;;0.40;;
48026;SDS011;50714;49.208;5.364;2022-08-01T08:13:49;0.35;;;0.30;;
48026;SDS011;50714;49.208;5.364;2022-08-01T08:23:49;0.57;;;0.57;;
48026;SDS011;50714;49.208;5.364;2022-08-01T08:34:08;0.70;;;0.50;;
48026;SDS011;50714;49.208;5.364;2022-08-01T08:44:09;0.30;;;0.30;;
48026;SDS011;50714;49.208;5.364;2022-08-01T08:54:10;1.17;;;0.80;;
48026;SDS011;50714;49.208;5.364;2022-08-01T09:04:14;0.30;;;0.30;;
48026;SDS011;50714;49.208;5.364;2022-08-01T09:14:17;0.40;;;0.40;;
48026;SDS011;50714;49.208;5.364;2022-08-01T09:24:27;0.65;;;0.57;;
48026;SDS011;50714;49.208;5.364;2022-08-01T09:34:29;0.63;;;0.60;;
48026;SDS011;50714;49.208;5.364;2022-08-01T09:44:42;0.50;;;0.45;;
48026;SDS011;50714;49.208;5.364;2022-08-01T09:54:52;0.40;;;0.40;;
48026;SDS011;50714;49.208;5.364;2022-08-01T10:04:57;2.03;;;0.82;;
48026;SDS011;50714;49.208;5.364;2022-08-01T10:14:57;1.30;;;1.20;;
48026;SDS011;50714;49.208;5.364;2022-08-01T10:24:58;1.17;;;0.98;;
48026;SDS011;50714;49.208;5.364;2022-08-01T10:35:03;0.90;;;0.90;;
48026;SDS011;50714;49.208;5.364;2022-08-01T10:45:04;1.13;;;1.02;;
48026;SDS011;50714;49.208;5.364;2022-08-01T10:55:07;0.80;;;0.80;;
48026;SDS011;50714;49.208;5.364;2022-08-01T11:05:12;1.00;;;0.80;;
48026;SDS011;50714;49.208;5.364;2022-08-01T11:15:21;0.75;;;0.75;;
48026;SDS011;50714;49.208;5.364;2022-08-01T11:26:10;1.23;;;0.90;;
48026;SDS011;50714;49.208;5.364;2022-08-01T11:36:32;0.70;;;0.70;;
48026;SDS011;50714;49.208;5.364;2022-08-01T11:46:10;0.88;;;0.80;;
48026;SDS011;50714;49.208;5.364;2022-08-01T11:56:12;0.60;;;0.60;;
48026;SDS011;50714;49.208;5.364;2022-08-01T12:06:13;0.90;;;0.60;;
48026;SDS011;50714;49.208;5.364;2022-08-01T12:16:13;0.40;;;0.40;;
48026;SDS011;50714;49.208;5.364;2022-08-01T12:26:14;1.85;;;0.50;;
48026;SDS011;50714;49.208;5.364;2022-08-01T12:36:26;2.03;;;0.50;;
48026;SDS011;50714;49.208;5.364;2022-08-01T12:46:27;1.35;;;0.50;;
48026;SDS011;50714;49.208;5.364;2022-08-01T12:56:31;1.20;;;0.55;;
48026;SDS011;50714;49.208;5.364;2022-08-01T13:06:35;0.75;;;0.47;;
48026;SDS011;50714;49.208;5.364;2022-08-01T13:16:45;0.45;;;0.35;;
48026;SDS011;50714;49.208;5.364;2022-08-01T13:36:47;0.30;;;0.30;;
48026;SDS011;50714;49.208;5.364;2022-08-01T13:46:48;0.30;;;0.30;;
48026;SDS011;50714;49.208;5.364;2022-08-01T13:56:49;0.30;;;0.25;;
48026;SDS011;50714;49.208;5.364;2022-08-01T14:06:49;0.20;;;0.20;;
48026;SDS011;50714;49.208;5.364;2022-08-01T14:16:50;0.50;;;0.45;;
48026;SDS011;50714;49.208;5.364;2022-08-01T14:26:50;0.30;;;0.30;;
48026;SDS011;50714;49.208;5.364;2022-08-01T14:36:51;0.38;;;0.38;;
48026;SDS011;50714;49.208;5.364;2022-08-01T14:46:53;0.40;;;0.40;;
48026;SDS011;50714;49.208;5.364;2022-08-01T14:56:54;0.40;;;0.40;;
48026;SDS011;50714;49.208;5.364;2022-08-01T15:06:54;0.50;;;0.40;;
48026;SDS011;50714;49.208;5.364;2022-08-01T15:16:54;1.00;;;0.50;;
48026;SDS011;50714;49.208;5.364;2022-08-01T15:26:55;0.57;;;0.57;;
48026;SDS011;50714;49.208;5.364;2022-08-01T15:36:55;0.30;;;0.30;;
48026;SDS011;50714;49.208;5.364;2022-08-01T15:46:56;0.63;;;0.50;;
48026;SDS011;50714;49.208;5.364;2022-08-01T15:56:56;0.50;;;0.50;;
48026;SDS011;50714;49.208;5.364;2022-08-01T16:06:56;3.15;;;0.57;;
48026;SDS011;50714;49.208;5.364;2022-08-01T16:16:57;1.40;;;0.50;;
48026;SDS011;50714;49.208;5.364;2022-08-01T16:26:57;0.63;;;0.60;;
48026;SDS011;50714;49.208;5.364;2022-08-01T16:36:57;0.80;;;0.80;;
48026;SDS011;50714;49.208;5.364;2022-08-01T16:46:58;1.02;;;0.40;;
48026;SDS011;50714;49.208;5.364;2022-08-01T16:56:58;0.52;;;0.43;;
48026;SDS011;50714;49.208;5.364;2022-08-01T17:06:59;0.50;;;0.50;;
48026;SDS011;50714;49.208;5.364;2022-08-01T17:16:59;0.30;;;0.30;;
48026;SDS011;50714;49.208;5.364;2022-08-01T17:27:00;1.05;;;0.60;;
48026;SDS011;50714;49.208;5.364;2022-08-01T17:37:00;0.70;;;0.43;;
48026;SDS011;50714;49.208;5.364;2022-08-01T17:47:01;1.70;;;0.70;;
48026;SDS011;50714;49.208;5.364;2022-08-01T17:57:01;0.73;;;0.60;;
48026;SDS011;50714;49.208;5.364;2022-08-01T18:07:02;1.45;;;0.57;;
48026;SDS011;50714;49.208;5.364;2022-08-01T18:17:02;1.20;;;0.60;;
48026;SDS011;50714;49.208;5.364;2022-08-01T18:27:03;0.47;;;0.47;;
48026;SDS011;50714;49.208;5.364;2022-08-01T18:37:03;0.90;;;0.57;;
48026;SDS011;50714;49.208;5.364;2022-08-01T18:47:04;0.45;;;0.45;;
48026;SDS011;50714;49.208;5.364;2022-08-01T18:57:04;0.73;;;0.63;;
48026;SDS011;50714;49.208;5.364;2022-08-01T19:07:04;0.50;;;0.50;;
48026;SDS011;50714;49.208;5.364;2022-08-01T19:17:05;0.47;;;0.47;;
48026;SDS011;50714;49.208;5.364;2022-08-01T19:27:06;1.02;;;0.90;;
48026;SDS011;50714;49.208;5.364;2022-08-01T19:37:08;0.68;;;0.60;;
48026;SDS011;50714;49.208;5.364;2022-08-01T19:47:10;0.85;;;0.77;;
48026;SDS011;50714;49.208;5.364;2022-08-01T19:57:13;0.50;;;0.50;;
48026;SDS011;50714;49.208;5.364;2022-08-01T20:07:14;0.68;;;0.68;;
48026;SDS011;50714;49.208;5.364;2022-08-01T20:17:15;1.95;;;0.93;;
48026;SDS011;50714;49.208;5.364;2022-08-01T20:27:17;0.57;;;0.57;;
48026;SDS011;50714;49.208;5.364;2022-08-01T20:37:19;0.80;;;0.80;;
48026;SDS011;50714;49.208;5.364;2022-08-01T20:47:22;0.63;;;0.63;;
48026;SDS011;50714;49.208;5.364;2022-08-01T20:57:23;0.90;;;0.90;;
48026;SDS011;50714;49.208;5.364;2022-08-01T21:07:32;0.60;;;0.60;;
48026;SDS011;50714;49.208;5.364;2022-08-01T21:17:52;0.70;;;0.70;;
48026;SDS011;50714;49.208;5.364;2022-08-01T21:28:16;4.63;;;1.10;;
48026;SDS011;50714;49.208;5.364;2022-08-01T21:38:17;0.90;;;0.80;;
48026;SDS011;50714;49.208;5.364;2022-08-01T21:48:18;0.82;;;0.70;;
48026;SDS011;50714;49.208;5.364;2022-08-01T22:08:55;1.48;;;0.85;;
48026;SDS011;50714;49.208;5.364;2022-08-01T22:19:01;0.82;;;0.75;;
48026;SDS011;50714;49.208;5.364;2022-08-01T22:29:03;1.08;;;0.73;;
48026;SDS011;50714;49.208;5.364;2022-08-01T22:39:04;1.00;;;1.00;;
48026;SDS011;50714;49.208;5.364;2022-08-01T22:59:26;0.93;;;0.82;;
48026;SDS011;50714;49.208;5.364;2022-08-01T23:09:32;0.70;;;0.70;;
48026;SDS011;50714;49.208;5.364;2022-08-01T23:19:34;0.75;;;0.75;;
48026;SDS011;50714;49.208;5.364;2022-08-01T23:29:36;1.02;;;0.90;;
48026;SDS011;50714;49.208;5.364;2022-08-01T23:39:37;1.13;;;0.90;;
48026;SDS011;50714;49.208;5.364;2022-08-01T23:49:38;0.90;;;0.83;;
48026;SDS011;50714;49.208;5.364;2022-08-01T23:59:38;0.65;;;0.65;;
